createdAt,value
2022-10-30T00:00:50.207Z,10.70
2022-10-30T00:03:18.206Z,10.70
2022-10-30T00:05:47.655Z,10.70
2022-10-30T00:08:16.915Z,10.70
2022-10-30T00:10:44.847Z,10.70
2022-10-30T00:13:13.976Z,10.70
2022-10-30T00:15:48.347Z,10.70
2022-10-30T00:18:16.034Z,10.70
2022-10-30T00:20:43.282Z,10.60
2022-10-30T00:23:10.573Z,10.60
2022-10-30T00:25:37.932Z,10.70
2022-10-30T00:28:07.265Z,10.60
2022-10-30T00:30:35.793Z,10.70
2022-10-30T00:33:03.931Z,10.60
2022-10-30T00:35:31.774Z,10.60
2022-10-30T00:38:00.895Z,10.60
2022-10-30T00:40:28.780Z,10.70
2022-10-30T00:42:56.062Z,10.60
2022-10-30T00:45:23.206Z,10.70
2022-10-30T00:47:56.174Z,10.60
2022-10-30T00:50:31.996Z,10.60
2022-10-30T00:53:08.417Z,10.60
2022-10-30T00:55:40.433Z,10.60
2022-10-30T00:58:11.181Z,10.60
2022-10-30T01:00:41.244Z,10.50
2022-10-30T01:03:09.828Z,10.50
2022-10-30T01:05:38.104Z,10.60
2022-10-30T01:08:05.761Z,10.60
2022-10-30T01:10:33.282Z,10.60
2022-10-30T01:13:02.467Z,10.60
2022-10-30T01:15:37.531Z,10.60
2022-10-30T01:18:32.529Z,10.60
2022-10-30T01:21:14.877Z,10.60
2022-10-30T01:24:14.323Z,10.60
2022-10-30T01:26:51.639Z,10.60
2022-10-30T01:29:35.515Z,10.60
2022-10-30T01:32:09.759Z,10.50
2022-10-30T01:34:45.997Z,10.50
2022-10-30T01:37:21.278Z,10.60
2022-10-30T01:39:48.894Z,10.50
2022-10-30T01:42:43.883Z,10.50
2022-10-30T01:45:14.493Z,10.50
2022-10-30T01:47:50.562Z,10.50
2022-10-30T01:50:29.531Z,10.50
2022-10-30T01:53:14.336Z,10.50
2022-10-30T01:56:14.050Z,10.50
2022-10-30T01:58:52.144Z,10.60
2022-10-30T02:01:21.961Z,10.60
2022-10-30T02:03:49.603Z,10.50
2022-10-30T02:06:17.536Z,10.50
2022-10-30T02:08:44.700Z,10.50
2022-10-30T02:11:13.066Z,10.40
2022-10-30T02:13:43.075Z,10.50
2022-10-30T02:16:11.249Z,10.50
2022-10-30T02:18:38.765Z,10.50
2022-10-30T02:21:06.950Z,10.50
2022-10-30T02:23:34.929Z,10.40
2022-10-30T02:26:02.110Z,10.40
2022-10-30T02:28:29.321Z,10.30
2022-10-30T02:30:56.828Z,10.40
2022-10-30T02:33:25.275Z,10.40
2022-10-30T02:35:54.763Z,10.30
2022-10-30T02:38:21.961Z,10.30
2022-10-30T02:40:50.782Z,10.30
2022-10-30T02:43:18.347Z,10.40
2022-10-30T02:45:51.963Z,10.30
2022-10-30T02:48:20.056Z,10.30
2022-10-30T02:50:48.987Z,10.30
2022-10-30T02:53:16.318Z,10.30
2022-10-30T02:55:45.652Z,10.40
2022-10-30T02:58:12.918Z,10.40
2022-10-30T03:00:40.441Z,10.30
2022-10-30T03:03:07.876Z,10.30
2022-10-30T03:05:35.281Z,10.40
2022-10-30T03:08:02.921Z,10.30
2022-10-30T03:10:30.751Z,10.30
2022-10-30T03:12:59.689Z,10.20
2022-10-30T03:15:27.805Z,10.20
2022-10-30T03:17:55.772Z,10.20
2022-10-30T03:20:23.202Z,10.20
2022-10-30T03:22:50.435Z,10.20
2022-10-30T03:25:23.867Z,10.20
2022-10-30T03:27:55.177Z,10.20
2022-10-30T03:30:22.947Z,10.10
2022-10-30T03:32:50.147Z,10.10
2022-10-30T03:35:17.390Z,10.10
2022-10-30T03:37:44.593Z,10.10
2022-10-30T03:40:12.276Z,10.10
2022-10-30T03:42:41.456Z,10.10
2022-10-30T03:45:09.686Z,10.10
2022-10-30T03:47:40.667Z,10.10
2022-10-30T03:50:09.468Z,10.10
2022-10-30T03:52:37.139Z,10.10
2022-10-30T03:55:04.607Z,10.10
2022-10-30T03:57:31.946Z,10.10
2022-10-30T04:00:10.537Z,10.00
2022-10-30T04:02:58.102Z,10.00
2022-10-30T04:05:28.311Z,10.00
2022-10-30T04:07:59.416Z,10.10
2022-10-30T04:10:28.313Z,10.00
2022-10-30T04:13:02.894Z,10.00
2022-10-30T04:15:30.636Z,10.00
2022-10-30T04:17:58.561Z,10.00
2022-10-30T04:55:24.854Z,9.90
2022-10-30T04:57:55.782Z,9.90
2022-10-30T05:00:23.464Z,9.90
2022-10-30T05:02:50.680Z,9.90
2022-10-30T05:05:17.807Z,9.90
2022-10-30T05:07:45.143Z,9.80
2022-10-30T05:10:17.062Z,9.90
2022-10-30T05:12:45.735Z,9.80
2022-10-30T05:15:14.234Z,9.80
2022-10-30T05:17:41.951Z,9.80
2022-10-30T05:20:12.308Z,9.80
2022-10-30T05:22:42.138Z,9.80
2022-10-30T05:25:09.945Z,9.70
2022-10-30T05:27:37.257Z,9.80
2022-10-30T05:30:04.707Z,9.70
2022-10-30T05:32:32.016Z,9.70
2022-10-30T05:34:59.072Z,9.80
2022-10-30T05:37:26.434Z,9.70
2022-10-30T05:39:53.694Z,9.70
2022-10-30T05:42:26.052Z,9.70
2022-10-30T05:45:00.916Z,9.70
2022-10-30T05:47:30.271Z,9.70
2022-10-30T05:49:58.107Z,9.70
2022-10-30T05:52:27.132Z,9.70
2022-10-30T05:54:54.584Z,9.70
2022-10-30T05:57:33.311Z,9.70
2022-10-30T06:00:01.516Z,9.70
2022-10-30T06:02:30.017Z,9.70
2022-10-30T06:04:57.198Z,9.80
2022-10-30T06:07:25.019Z,9.80
2022-10-30T06:09:52.573Z,9.90
2022-10-30T06:12:26.782Z,9.90
2022-10-30T06:15:13.872Z,9.90
2022-10-30T06:17:41.128Z,10.00
2022-10-30T06:20:22.984Z,10.00
2022-10-30T06:23:10.746Z,10.00
2022-10-30T06:25:46.609Z,10.00
2022-10-30T06:28:20.724Z,10.00
2022-10-30T06:30:48.099Z,10.00
2022-10-30T06:33:15.442Z,10.00
2022-10-30T06:35:50.387Z,10.10
2022-10-30T06:38:19.023Z,10.10
2022-10-30T06:40:49.080Z,10.20
2022-10-30T06:43:32.292Z,10.30
2022-10-30T06:46:04.888Z,10.30
2022-10-30T06:48:34.280Z,10.30
2022-10-30T06:51:03.046Z,10.30
2022-10-30T06:53:33.447Z,10.30
2022-10-30T06:56:20.679Z,10.30
2022-10-30T06:59:05.062Z,10.30
2022-10-30T07:01:35.650Z,10.40
2022-10-30T07:04:15.597Z,10.30
2022-10-30T07:06:44.216Z,10.30
2022-10-30T07:09:11.469Z,10.30
2022-10-30T07:11:42.293Z,10.40
2022-10-30T07:14:29.769Z,10.50
2022-10-30T07:17:06.156Z,10.70
2022-10-30T07:19:33.427Z,10.80
2022-10-30T07:22:02.724Z,10.80
2022-10-30T07:24:33.783Z,10.90
2022-10-30T07:27:22.966Z,10.90
2022-10-30T07:30:03.819Z,10.70
2022-10-30T07:32:39.154Z,10.70
2022-10-30T07:35:26.345Z,10.80
2022-10-30T07:38:11.255Z,10.80
2022-10-30T07:40:54.041Z,10.80
2022-10-30T07:43:39.080Z,10.90
2022-10-30T07:46:27.046Z,10.90
2022-10-30T07:49:11.142Z,11.00
2022-10-30T07:51:43.202Z,11.10
2022-10-30T07:54:12.980Z,11.20
2022-10-30T07:56:41.267Z,11.20
2022-10-30T07:59:28.504Z,11.30
2022-10-30T08:02:12.213Z,11.30
2022-10-30T08:05:00.872Z,11.40
2022-10-30T08:07:48.514Z,11.50
2022-10-30T08:10:16.437Z,11.60
2022-10-30T08:12:48.386Z,11.70
2022-10-30T08:15:16.821Z,11.70
2022-10-30T08:17:46.834Z,11.60
2022-10-30T08:20:18.196Z,11.70
2022-10-30T08:22:49.192Z,11.80
2022-10-30T08:25:20.457Z,11.80
2022-10-30T08:27:55.999Z,11.90
2022-10-30T08:30:30.105Z,12.10
2022-10-30T08:33:03.049Z,12.20
2022-10-30T08:35:52.213Z,12.30
2022-10-30T08:38:20.058Z,12.40
2022-10-30T08:40:56.292Z,12.50
2022-10-30T08:43:25.431Z,12.50
2022-10-30T08:45:57.445Z,12.50
2022-10-30T08:48:25.750Z,12.40
2022-10-30T08:51:07.038Z,12.60
2022-10-30T08:53:43.114Z,12.50
2022-10-30T08:56:14.266Z,12.50
2022-10-30T08:58:51.762Z,12.50
2022-10-30T09:01:19.689Z,12.40
2022-10-30T09:04:06.791Z,12.40
2022-10-30T09:06:55.309Z,12.40
2022-10-30T09:09:42.763Z,12.70
2022-10-30T09:12:11.449Z,12.90
2022-10-30T09:14:43.556Z,13.10
2022-10-30T09:17:12.582Z,13.30
2022-10-30T09:22:26.542Z,13.30
2022-10-30T09:24:54.930Z,13.10
2022-10-30T09:27:46.568Z,13.10
2022-10-30T09:30:15.622Z,13.30
2022-10-30T09:32:46.672Z,13.50
2022-10-30T09:35:19.876Z,13.60
2022-10-30T09:37:47.246Z,13.50
2022-10-30T09:40:23.668Z,13.70
2022-10-30T09:42:52.763Z,13.90
2022-10-30T09:45:30.067Z,14.00
2022-10-30T09:48:01.859Z,14.00
2022-10-30T09:50:37.235Z,14.00
2022-10-30T09:53:11.681Z,14.10
2022-10-30T09:55:42.453Z,14.20
2022-10-30T09:58:30.645Z,14.00
2022-10-30T10:01:26.784Z,14.10
2022-10-30T10:04:23.783Z,14.20
2022-10-30T10:07:21.781Z,14.00
2022-10-30T10:10:00.287Z,13.90
2022-10-30T10:12:40.442Z,13.90
2022-10-30T10:15:35.037Z,13.80
2022-10-30T10:18:04.903Z,13.80
2022-10-30T10:20:37.603Z,13.70
2022-10-30T10:23:17.203Z,13.70
2022-10-30T10:25:52.874Z,13.80
2022-10-30T10:28:30.662Z,14.10
2022-10-30T10:31:13.130Z,14.00
2022-10-30T10:33:59.867Z,14.20
2022-10-30T10:36:33.976Z,14.40
2022-10-30T10:39:15.861Z,14.50
2022-10-30T10:41:52.556Z,14.70
2022-10-30T10:44:45.946Z,14.50
2022-10-30T10:47:15.189Z,14.50
2022-10-30T10:50:05.923Z,14.60
2022-10-30T10:52:41.028Z,14.80
2022-10-30T10:55:18.233Z,14.90
2022-10-30T10:57:47.036Z,14.80
2022-10-30T11:00:18.291Z,15.00
2022-10-30T11:02:50.814Z,15.10
2022-10-30T11:05:39.133Z,15.10
2022-10-30T11:08:28.080Z,15.20
2022-10-30T11:11:05.952Z,15.30
2022-10-30T11:13:40.429Z,15.40
2022-10-30T11:16:30.776Z,15.40
2022-10-30T11:19:01.504Z,15.50
2022-10-30T11:21:33.348Z,15.60
2022-10-30T11:24:02.640Z,15.70
2022-10-30T11:26:34.735Z,15.80
2022-10-30T11:29:14.026Z,15.90
2022-10-30T11:31:45.223Z,15.90
2022-10-30T11:34:25.810Z,15.80
2022-10-30T11:36:54.470Z,15.70
2022-10-30T11:39:25.322Z,15.80
2022-10-30T11:42:14.039Z,16.10
2022-10-30T11:44:49.841Z,16.50
2022-10-30T11:47:38.899Z,16.70
2022-10-30T11:50:16.986Z,16.70
2022-10-30T11:52:44.752Z,16.90
2022-10-30T11:55:19.305Z,17.00
2022-10-30T11:57:57.248Z,16.90
2022-10-30T12:00:28.219Z,16.90
2022-10-30T12:03:01.014Z,16.90
2022-10-30T12:05:50.520Z,17.00
2022-10-30T12:08:22.219Z,16.90
2022-10-30T12:11:06.055Z,17.00
2022-10-30T12:13:41.495Z,17.00
2022-10-30T12:16:19.091Z,17.10
2022-10-30T12:18:58.701Z,17.40
2022-10-30T12:21:29.806Z,17.40
2022-10-30T12:24:03.583Z,17.40
2022-10-30T12:26:36.894Z,17.60
2022-10-30T12:29:20.931Z,17.70
2022-10-30T12:31:56.991Z,17.80
2022-10-30T12:34:46.239Z,17.80
2022-10-30T12:37:35.211Z,17.70
2022-10-30T12:40:07.205Z,17.90
2022-10-30T12:42:41.807Z,17.80
2022-10-30T12:45:32.473Z,17.50
2022-10-30T12:48:09.183Z,17.40
2022-10-30T12:50:45.654Z,17.40
2022-10-30T12:53:32.935Z,17.30
2022-10-30T12:56:08.980Z,17.30
2022-10-30T12:58:50.677Z,17.20
2022-10-30T13:01:46.509Z,17.30
2022-10-30T13:04:27.765Z,17.30
2022-10-30T13:07:18.691Z,17.30
2022-10-30T13:10:15.051Z,17.30
2022-10-30T13:12:47.353Z,17.40
2022-10-30T13:15:37.833Z,17.50
2022-10-30T13:18:17.881Z,17.40
2022-10-30T13:20:58.302Z,17.50
2022-10-30T13:23:36.140Z,17.60
2022-10-30T13:26:23.550Z,17.50
2022-10-30T13:29:30.199Z,17.40
2022-10-30T13:32:18.409Z,17.50
2022-10-30T13:35:17.985Z,17.50
2022-10-30T13:38:05.152Z,17.60
2022-10-30T13:40:42.749Z,17.30
2022-10-30T13:43:29.462Z,17.30
2022-10-30T13:46:05.710Z,17.00
2022-10-30T13:48:52.824Z,16.90
2022-10-30T13:51:21.350Z,16.70
2022-10-30T13:53:56.074Z,16.70
2022-10-30T13:56:23.561Z,16.70
2022-10-30T13:59:19.770Z,16.70
2022-10-30T14:01:55.416Z,16.80
2022-10-30T14:04:36.451Z,16.70
2022-10-30T14:07:33.082Z,16.70
2022-10-30T14:10:14.234Z,16.60
2022-10-30T14:12:46.543Z,16.50
2022-10-30T14:15:21.074Z,16.40
2022-10-30T14:18:07.962Z,16.30
2022-10-30T14:20:35.286Z,16.20
2022-10-30T14:23:26.067Z,16.10
2022-10-30T14:26:14.368Z,16.10
2022-10-30T14:28:44.966Z,16.10
2022-10-30T14:31:17.665Z,16.00
2022-10-30T14:33:46.725Z,15.90
2022-10-30T14:36:34.125Z,15.80
2022-10-30T14:39:21.211Z,15.80
2022-10-30T14:42:01.187Z,15.70
2022-10-30T14:44:43.378Z,15.70
2022-10-30T14:47:11.904Z,15.60
2022-10-30T14:49:57.697Z,15.60
2022-10-30T14:52:53.988Z,15.50
2022-10-30T14:55:56.732Z,15.50
2022-10-30T14:58:29.345Z,15.40
2022-10-30T15:01:24.143Z,15.30
2022-10-30T15:04:12.211Z,15.20
2022-10-30T15:06:40.585Z,15.20
2022-10-30T15:09:31.146Z,15.00
2022-10-30T15:12:09.768Z,15.00
2022-10-30T15:14:53.598Z,14.90
2022-10-30T15:17:24.977Z,14.90
2022-10-30T15:19:52.660Z,14.80
2022-10-30T15:22:22.471Z,14.70
2022-10-30T15:24:51.981Z,14.60
2022-10-30T15:27:22.443Z,14.60
2022-10-30T15:29:56.216Z,14.50
2022-10-30T15:32:25.835Z,14.40
2022-10-30T15:34:55.300Z,14.30
2022-10-30T15:37:25.366Z,14.20
2022-10-30T15:40:20.979Z,14.10
2022-10-30T15:42:50.818Z,14.00
2022-10-30T15:45:25.220Z,13.80
2022-10-30T15:48:04.509Z,13.70
2022-10-30T15:50:33.679Z,13.70
2022-10-30T15:53:01.597Z,13.60
2022-10-30T15:55:31.420Z,13.50
2022-10-30T15:58:04.967Z,13.40
2022-10-30T16:00:36.381Z,13.30
2022-10-30T16:03:05.378Z,13.20
2022-10-30T16:05:34.027Z,13.10
2022-10-30T16:08:03.405Z,13.10
2022-10-30T16:10:34.560Z,13.00
2022-10-30T16:13:03.769Z,13.00
2022-10-30T16:15:34.809Z,12.90
2022-10-30T16:18:07.978Z,12.80
2022-10-30T16:20:36.555Z,12.80
2022-10-30T16:23:05.251Z,12.70
2022-10-30T16:25:35.883Z,12.70
2022-10-30T16:28:04.967Z,12.60
2022-10-30T16:30:34.136Z,12.60
2022-10-30T16:33:01.877Z,12.50
2022-10-30T16:35:29.360Z,12.50
2022-10-30T16:37:57.045Z,12.50
2022-10-30T16:40:28.383Z,12.40
2022-10-30T16:43:00.100Z,12.40
2022-10-30T16:45:29.305Z,12.30
2022-10-30T16:48:08.173Z,12.30
2022-10-30T16:50:38.766Z,12.20
2022-10-30T16:53:07.565Z,12.30
2022-10-30T16:55:38.297Z,12.20
2022-10-30T16:58:05.643Z,12.20
2022-10-30T17:00:36.543Z,12.10
2022-10-30T17:03:12.180Z,12.10
2022-10-30T17:05:43.701Z,12.00
2022-10-30T17:08:17.977Z,12.00
2022-10-30T17:10:58.032Z,11.90
2022-10-30T17:13:37.342Z,11.90
2022-10-30T17:16:29.186Z,11.80
2022-10-30T17:18:58.868Z,11.80
2022-10-30T17:21:37.012Z,11.70
2022-10-30T17:24:04.778Z,11.70
2022-10-30T17:26:39.198Z,11.60
2022-10-30T17:29:06.483Z,11.60
2022-10-30T17:31:38.267Z,11.50
2022-10-30T17:34:12.918Z,11.50
2022-10-30T17:36:40.956Z,11.50
2022-10-30T17:39:08.647Z,11.40
2022-10-30T17:41:36.767Z,11.40
2022-10-30T17:44:04.842Z,11.40
2022-10-30T17:46:32.292Z,11.30
2022-10-30T17:49:00.246Z,11.20
2022-10-30T17:51:29.311Z,11.20
2022-10-30T17:53:56.432Z,11.30
2022-10-30T17:56:28.162Z,11.20
2022-10-30T17:58:55.507Z,11.20
2022-10-30T18:01:25.409Z,11.20
2022-10-30T18:03:55.661Z,11.20
2022-10-30T18:06:26.032Z,11.20
2022-10-30T18:08:53.846Z,11.10
2022-10-30T18:11:23.417Z,11.10
2022-10-30T18:13:52.246Z,11.10
2022-10-30T18:16:20.300Z,11.10
2022-10-30T18:18:48.128Z,11.10
2022-10-30T18:21:18.120Z,11.10
2022-10-30T18:23:52.360Z,11.10
2022-10-30T18:26:23.292Z,11.10
2022-10-30T18:28:50.538Z,11.10
2022-10-30T18:31:21.613Z,11.10
2022-10-30T18:33:49.658Z,11.10
2022-10-30T18:36:19.620Z,11.10
2022-10-30T18:38:47.361Z,11.10
2022-10-30T18:41:20.612Z,11.00
2022-10-30T18:43:48.174Z,10.90
2022-10-30T18:46:16.855Z,10.90
2022-10-30T18:48:45.593Z,10.80
2022-10-30T18:51:18.438Z,10.90
2022-10-30T18:53:51.967Z,10.80
2022-10-30T18:56:23.458Z,10.90
2022-10-30T18:58:54.926Z,10.90
2022-10-30T19:01:26.778Z,10.90
2022-10-30T19:03:54.025Z,10.80
2022-10-30T19:06:24.509Z,10.80
2022-10-30T19:08:51.870Z,10.80
2022-10-30T19:11:24.532Z,10.80
2022-10-30T19:13:54.399Z,10.80
2022-10-30T19:16:24.826Z,10.80
2022-10-30T19:18:52.179Z,10.70
2022-10-30T19:21:25.592Z,10.70
2022-10-30T19:23:54.701Z,10.60
2022-10-30T19:26:22.110Z,10.60
2022-10-30T19:28:49.191Z,10.60
2022-10-30T19:31:18.894Z,10.60
2022-10-30T19:33:51.228Z,10.60
2022-10-30T19:36:28.030Z,10.70
2022-10-30T19:38:56.291Z,10.60
2022-10-30T19:41:24.882Z,10.70
2022-10-30T19:43:53.054Z,10.70
2022-10-30T19:46:20.725Z,10.70
2022-10-30T19:48:57.290Z,10.60
2022-10-30T19:51:25.304Z,10.60
2022-10-30T19:53:53.728Z,10.50
2022-10-30T19:56:21.851Z,10.50
2022-10-30T19:58:49.451Z,10.50
2022-10-30T20:01:16.946Z,10.40
2022-10-30T20:03:44.436Z,10.40
2022-10-30T20:06:12.918Z,10.40
2022-10-30T20:08:40.572Z,10.40
2022-10-30T20:11:07.969Z,10.30
2022-10-30T20:13:35.504Z,10.30
2022-10-30T20:16:05.061Z,10.30
2022-10-30T20:18:35.226Z,10.30
2022-10-30T20:21:08.824Z,10.30
2022-10-30T20:23:36.515Z,10.30
2022-10-30T20:26:11.898Z,10.30
2022-10-30T20:28:41.944Z,10.30
2022-10-30T20:31:12.473Z,10.30
2022-10-30T20:33:39.782Z,10.30
2022-10-30T20:36:07.082Z,10.30
2022-10-30T20:38:34.914Z,10.30
2022-10-30T20:41:03.935Z,10.30
2022-10-30T20:43:34.943Z,10.30
2022-10-30T20:46:03.725Z,10.40
2022-10-30T20:48:32.408Z,10.30
2022-10-30T20:51:01.680Z,10.40
2022-10-30T20:53:29.839Z,10.30
2022-10-30T20:55:57.147Z,10.30
2022-10-30T20:58:24.431Z,10.30
2022-10-30T21:00:55.611Z,10.30
2022-10-30T21:03:24.215Z,10.30
2022-10-30T21:05:57.485Z,10.30
2022-10-30T21:08:26.010Z,10.30
2022-10-30T21:10:53.082Z,10.30
2022-10-30T21:13:20.211Z,10.30
2022-10-30T21:15:47.339Z,10.30
2022-10-30T21:18:14.689Z,10.30
2022-10-30T21:20:41.948Z,10.20
2022-10-30T21:23:10.389Z,10.20
2022-10-30T21:25:37.654Z,10.20
2022-10-30T21:28:05.061Z,10.10
2022-10-30T21:30:32.132Z,10.10
2022-10-30T21:32:59.957Z,10.10
2022-10-30T21:35:28.286Z,10.00
2022-10-30T21:37:55.411Z,10.10
2022-10-30T21:40:22.886Z,10.10
2022-10-30T21:42:50.446Z,10.20
2022-10-30T21:45:17.687Z,10.20
2022-10-30T21:47:44.928Z,10.20
2022-10-30T21:50:12.885Z,10.30
2022-10-30T21:52:40.833Z,10.30
2022-10-30T21:55:08.922Z,10.30
2022-10-30T21:57:36.568Z,10.30
2022-10-30T22:00:07.122Z,10.30
2022-10-30T22:02:35.649Z,10.30
2022-10-30T22:05:02.816Z,10.30
2022-10-30T22:07:30.265Z,10.30
2022-10-30T22:09:57.357Z,10.30
2022-10-30T22:12:24.514Z,10.40
2022-10-30T22:14:51.553Z,10.40
2022-10-30T22:17:18.885Z,10.40
2022-10-30T22:19:46.043Z,10.30
2022-10-30T22:22:13.308Z,10.30
2022-10-30T22:24:40.565Z,10.30
2022-10-30T22:27:07.756Z,10.30
2022-10-30T22:29:35.140Z,10.30
2022-10-30T22:32:02.268Z,10.30
2022-10-30T22:34:29.794Z,10.30
2022-10-30T22:36:56.931Z,10.30
2022-10-30T22:39:24.224Z,10.30
2022-10-30T22:41:51.430Z,10.30
2022-10-30T22:44:19.130Z,10.30
2022-10-30T22:46:46.316Z,10.40
2022-10-30T22:49:13.440Z,10.40
2022-10-30T22:51:40.695Z,10.40
2022-10-30T22:54:11.169Z,10.30
2022-10-30T22:56:39.466Z,10.40
2022-10-30T22:59:10.363Z,10.30
2022-10-30T23:01:39.243Z,10.30
2022-10-30T23:04:08.360Z,10.20
2022-10-30T23:06:36.038Z,10.30
2022-10-30T23:09:07.676Z,10.30
2022-10-30T23:11:35.581Z,10.20
2022-10-30T23:14:02.691Z,10.20
2022-10-30T23:16:30.341Z,10.20
2022-10-30T23:18:59.734Z,10.20
2022-10-30T23:21:29.826Z,10.20
2022-10-30T23:23:57.567Z,10.20
2022-10-30T23:26:28.296Z,10.30
2022-10-30T23:28:56.677Z,10.20
2022-10-30T23:31:32.586Z,10.20
2022-10-30T23:34:01.237Z,10.20
2022-10-30T23:36:28.492Z,10.20
2022-10-30T23:38:58.201Z,10.10
2022-10-30T23:41:27.899Z,10.10
2022-10-30T23:43:56.521Z,10.10
2022-10-30T23:46:24.123Z,10.10
2022-10-30T23:48:51.327Z,10.10
2022-10-30T23:51:19.103Z,10.00
2022-10-30T23:53:46.446Z,10.00
2022-10-30T23:56:13.789Z,10.00
2022-10-30T23:58:44.603Z,10.00
